Antioch, Tennessee
Current Conditions -  °F | °C
As of 3:53 PM on Saturday 20 Dec 2014 (Local Time) from KBNA Reporting Station
Broken Clouds Broken Clouds  
Wind Chill: 42°   Ceiling: 6500
Heat Index: 45°   Visibility: 10mi
Dew Point: 28°   Wind: 6mph
Humidity: 52%   Direction: 10°N
Pressure: 30.24"   Gusts: NA
Location:  36.06°N, 86.67°W
Report Text: KBNA 202153Z 01005KT 10SM BKN065 BKN110 07/M02 A3024 RMK AO2 SLP242 T00721022
Loading
Personal Weather Stations






























Interactive Weather Map New forecast layout! Learn more

10-Day Weather Forecast

Advertisements
Track Severe Weather on mobile